sensor_id;sensor_type;location;lat;lon;timestamp;P1;durP1;ratioP1;P2;durP2;ratioP2
25409;SDS011;13339;50.840;4.346;2022-10-18T00:00:42;8.13;;;7.30;;
25409;SDS011;13339;50.840;4.346;2022-10-18T00:03:08;10.10;;;7.43;;
25409;SDS011;13339;50.840;4.346;2022-10-18T00:05:34;7.77;;;6.87;;
25409;SDS011;13339;50.840;4.346;2022-10-18T00:07:59;10.93;;;8.30;;
25409;SDS011;13339;50.840;4.346;2022-10-18T00:10:25;10.70;;;7.87;;
25409;SDS011;13339;50.840;4.346;2022-10-18T00:12:51;11.97;;;7.83;;
25409;SDS011;13339;50.840;4.346;2022-10-18T00:15:17;9.53;;;7.70;;
25409;SDS011;13339;50.840;4.346;2022-10-18T00:17:43;12.50;;;8.13;;
25409;SDS011;13339;50.840;4.346;2022-10-18T00:20:09;8.97;;;7.63;;
25409;SDS011;13339;50.840;4.346;2022-10-18T00:22:39;13.70;;;7.80;;
25409;SDS011;13339;50.840;4.346;2022-10-18T00:25:05;11.03;;;8.30;;
25409;SDS011;13339;50.840;4.346;2022-10-18T00:27:31;10.60;;;7.47;;
25409;SDS011;13339;50.840;4.346;2022-10-18T00:29:57;8.03;;;7.23;;
25409;SDS011;13339;50.840;4.346;2022-10-18T00:32:23;10.77;;;7.63;;
25409;SDS011;13339;50.840;4.346;2022-10-18T00:34:49;13.63;;;8.07;;
25409;SDS011;13339;50.840;4.346;2022-10-18T00:37:15;12.63;;;8.20;;
25409;SDS011;13339;50.840;4.346;2022-10-18T00:39:41;12.27;;;7.60;;
25409;SDS011;13339;50.840;4.346;2022-10-18T00:42:06;11.40;;;7.87;;
25409;SDS011;13339;50.840;4.346;2022-10-18T00:47:04;11.00;;;8.93;;
25409;SDS011;13339;50.840;4.346;2022-10-18T00:49:35;13.07;;;9.57;;
25409;SDS011;13339;50.840;4.346;2022-10-18T00:52:12;11.07;;;8.20;;
25409;SDS011;13339;50.840;4.346;2022-10-18T00:54:43;13.93;;;9.20;;
25409;SDS011;13339;50.840;4.346;2022-10-18T00:57:11;8.70;;;7.87;;
25409;SDS011;13339;50.840;4.346;2022-10-18T00:59:37;10.60;;;8.13;;
25409;SDS011;13339;50.840;4.346;2022-10-18T01:02:04;10.00;;;8.60;;
25409;SDS011;13339;50.840;4.346;2022-10-18T01:04:30;10.37;;;7.97;;
25409;SDS011;13339;50.840;4.346;2022-10-18T01:06:58;12.37;;;8.50;;
25409;SDS011;13339;50.840;4.346;2022-10-18T01:09:34;11.73;;;9.40;;
25409;SDS011;13339;50.840;4.346;2022-10-18T01:12:14;11.73;;;9.20;;
25409;SDS011;13339;50.840;4.346;2022-10-18T01:18:13;13.80;;;9.40;;
25409;SDS011;13339;50.840;4.346;2022-10-18T01:32:11;11.20;;;8.10;;
25409;SDS011;13339;50.840;4.346;2022-10-18T01:34:41;11.20;;;9.33;;
25409;SDS011;13339;50.840;4.346;2022-10-18T01:37:10;13.20;;;9.10;;
25409;SDS011;13339;50.840;4.346;2022-10-18T01:39:41;13.80;;;9.10;;
25409;SDS011;13339;50.840;4.346;2022-10-18T01:42:10;11.53;;;9.00;;
25409;SDS011;13339;50.840;4.346;2022-10-18T01:44:38;12.40;;;9.00;;
25409;SDS011;13339;50.840;4.346;2022-10-18T01:47:08;11.90;;;9.20;;
25409;SDS011;13339;50.840;4.346;2022-10-18T01:49:36;15.93;;;9.87;;
25409;SDS011;13339;50.840;4.346;2022-10-18T01:52:01;13.67;;;10.03;;
25409;SDS011;13339;50.840;4.346;2022-10-18T01:54:32;12.63;;;9.63;;
25409;SDS011;13339;50.840;4.346;2022-10-18T01:57:16;11.13;;;9.37;;
25409;SDS011;13339;50.840;4.346;2022-10-18T02:00:02;21.20;;;9.93;;
25409;SDS011;13339;50.840;4.346;2022-10-18T02:05:30;12.60;;;9.40;;
25409;SDS011;13339;50.840;4.346;2022-10-18T02:13:38;14.33;;;10.30;;
25409;SDS011;13339;50.840;4.346;2022-10-18T02:16:08;17.23;;;10.50;;
25409;SDS011;13339;50.840;4.346;2022-10-18T02:18:40;15.97;;;10.17;;
25409;SDS011;13339;50.840;4.346;2022-10-18T02:21:10;14.43;;;9.90;;
25409;SDS011;13339;50.840;4.346;2022-10-18T02:23:39;12.90;;;10.07;;
25409;SDS011;13339;50.840;4.346;2022-10-18T02:26:07;13.13;;;10.40;;
25409;SDS011;13339;50.840;4.346;2022-10-18T02:28:33;13.77;;;9.73;;
25409;SDS011;13339;50.840;4.346;2022-10-18T02:36:58;11.73;;;9.83;;
25409;SDS011;13339;50.840;4.346;2022-10-18T02:39:29;12.27;;;10.43;;
25409;SDS011;13339;50.840;4.346;2022-10-18T02:41:59;12.13;;;9.80;;
25409;SDS011;13339;50.840;4.346;2022-10-18T02:44:30;12.07;;;10.63;;
25409;SDS011;13339;50.840;4.346;2022-10-18T02:46:56;13.10;;;10.63;;
25409;SDS011;13339;50.840;4.346;2022-10-18T02:49:22;11.73;;;9.90;;
25409;SDS011;13339;50.840;4.346;2022-10-18T02:51:47;11.43;;;10.07;;
25409;SDS011;13339;50.840;4.346;2022-10-18T02:54:13;16.77;;;10.83;;
25409;SDS011;13339;50.840;4.346;2022-10-18T02:56:39;14.67;;;11.13;;
25409;SDS011;13339;50.840;4.346;2022-10-18T02:59:04;16.90;;;10.63;;
25409;SDS011;13339;50.840;4.346;2022-10-18T03:01:31;14.37;;;10.67;;
25409;SDS011;13339;50.840;4.346;2022-10-18T03:03:58;16.20;;;11.77;;
25409;SDS011;13339;50.840;4.346;2022-10-18T03:06:24;14.23;;;11.23;;
25409;SDS011;13339;50.840;4.346;2022-10-18T03:08:49;15.73;;;12.27;;
25409;SDS011;13339;50.840;4.346;2022-10-18T03:11:15;20.50;;;12.70;;
25409;SDS011;13339;50.840;4.346;2022-10-18T03:13:40;16.90;;;12.10;;
25409;SDS011;13339;50.840;4.346;2022-10-18T03:16:06;18.23;;;13.20;;
25409;SDS011;13339;50.840;4.346;2022-10-18T03:18:31;16.00;;;12.40;;
25409;SDS011;13339;50.840;4.346;2022-10-18T03:20:57;17.67;;;13.70;;
25409;SDS011;13339;50.840;4.346;2022-10-18T03:23:23;16.30;;;13.27;;
25409;SDS011;13339;50.840;4.346;2022-10-18T03:25:48;23.37;;;15.63;;
25409;SDS011;13339;50.840;4.346;2022-10-18T03:28:14;19.33;;;15.27;;
25409;SDS011;13339;50.840;4.346;2022-10-18T03:30:39;23.27;;;16.40;;
25409;SDS011;13339;50.840;4.346;2022-10-18T03:33:05;22.13;;;16.57;;
25409;SDS011;13339;50.840;4.346;2022-10-18T03:35:31;24.83;;;17.87;;
25409;SDS011;13339;50.840;4.346;2022-10-18T03:37:56;28.47;;;17.90;;
25409;SDS011;13339;50.840;4.346;2022-10-18T03:40:22;23.00;;;17.83;;
25409;SDS011;13339;50.840;4.346;2022-10-18T03:42:47;23.10;;;18.43;;
25409;SDS011;13339;50.840;4.346;2022-10-18T03:45:13;23.10;;;17.93;;
25409;SDS011;13339;50.840;4.346;2022-10-18T03:47:39;27.97;;;19.80;;
25409;SDS011;13339;50.840;4.346;2022-10-18T03:50:04;24.47;;;18.43;;
25409;SDS011;13339;50.840;4.346;2022-10-18T03:52:30;28.33;;;19.27;;
25409;SDS011;13339;50.840;4.346;2022-10-18T03:54:56;26.20;;;19.20;;
25409;SDS011;13339;50.840;4.346;2022-10-18T03:57:21;26.00;;;19.03;;
25409;SDS011;13339;50.840;4.346;2022-10-18T03:59:47;24.10;;;19.33;;
25409;SDS011;13339;50.840;4.346;2022-10-18T04:02:12;24.60;;;19.40;;
25409;SDS011;13339;50.840;4.346;2022-10-18T04:04:38;28.53;;;19.93;;
25409;SDS011;13339;50.840;4.346;2022-10-18T04:07:04;26.13;;;18.27;;
25409;SDS011;13339;50.840;4.346;2022-10-18T04:09:29;27.97;;;19.57;;
25409;SDS011;13339;50.840;4.346;2022-10-18T04:11:55;24.30;;;18.60;;
25409;SDS011;13339;50.840;4.346;2022-10-18T04:14:21;30.03;;;19.23;;
25409;SDS011;13339;50.840;4.346;2022-10-18T04:16:46;25.63;;;19.40;;
25409;SDS011;13339;50.840;4.346;2022-10-18T04:19:12;29.17;;;18.73;;
25409;SDS011;13339;50.840;4.346;2022-10-18T04:21:37;22.07;;;17.37;;
25409;SDS011;13339;50.840;4.346;2022-10-18T04:24:04;26.27;;;18.40;;
25409;SDS011;13339;50.840;4.346;2022-10-18T04:26:29;26.90;;;17.90;;
25409;SDS011;13339;50.840;4.346;2022-10-18T04:28:55;28.87;;;17.77;;
25409;SDS011;13339;50.840;4.346;2022-10-18T04:31:21;25.47;;;16.57;;
25409;SDS011;13339;50.840;4.346;2022-10-18T04:33:46;30.83;;;16.70;;
25409;SDS011;13339;50.840;4.346;2022-10-18T04:36:12;25.83;;;16.23;;
25409;SDS011;13339;50.840;4.346;2022-10-18T04:38:37;24.30;;;16.03;;
25409;SDS011;13339;50.840;4.346;2022-10-18T04:41:03;27.00;;;16.13;;
25409;SDS011;13339;50.840;4.346;2022-10-18T04:43:29;26.07;;;15.50;;
25409;SDS011;13339;50.840;4.346;2022-10-18T04:45:54;29.63;;;15.83;;
25409;SDS011;13339;50.840;4.346;2022-10-18T04:48:20;27.67;;;16.47;;
25409;SDS011;13339;50.840;4.346;2022-10-18T04:50:49;26.23;;;16.80;;
25409;SDS011;13339;50.840;4.346;2022-10-18T04:53:16;25.20;;;15.17;;
25409;SDS011;13339;50.840;4.346;2022-10-18T04:55:46;26.63;;;15.27;;
25409;SDS011;13339;50.840;4.346;2022-10-18T04:58:13;30.70;;;15.67;;
25409;SDS011;13339;50.840;4.346;2022-10-18T05:00:39;23.03;;;15.60;;
25409;SDS011;13339;50.840;4.346;2022-10-18T05:03:05;27.50;;;15.27;;
25409;SDS011;13339;50.840;4.346;2022-10-18T05:05:31;25.73;;;15.87;;
25409;SDS011;13339;50.840;4.346;2022-10-18T05:07:57;23.37;;;15.67;;
25409;SDS011;13339;50.840;4.346;2022-10-18T05:10:24;32.50;;;16.40;;
25409;SDS011;13339;50.840;4.346;2022-10-18T05:12:50;31.30;;;15.10;;
25409;SDS011;13339;50.840;4.346;2022-10-18T05:15:15;24.17;;;15.50;;
25409;SDS011;13339;50.840;4.346;2022-10-18T05:17:41;24.93;;;15.10;;
25409;SDS011;13339;50.840;4.346;2022-10-18T05:20:07;30.47;;;16.27;;
25409;SDS011;13339;50.840;4.346;2022-10-18T05:22:32;25.53;;;15.73;;
25409;SDS011;13339;50.840;4.346;2022-10-18T05:24:58;25.07;;;15.27;;
25409;SDS011;13339;50.840;4.346;2022-10-18T05:27:24;22.90;;;15.00;;
25409;SDS011;13339;50.840;4.346;2022-10-18T05:29:49;38.10;;;18.40;;
25409;SDS011;13339;50.840;4.346;2022-10-18T05:32:15;30.00;;;17.47;;
25409;SDS011;13339;50.840;4.346;2022-10-18T05:34:40;29.23;;;17.63;;
25409;SDS011;13339;50.840;4.346;2022-10-18T05:37:06;31.47;;;16.53;;
25409;SDS011;13339;50.840;4.346;2022-10-18T05:39:32;26.93;;;17.00;;
25409;SDS011;13339;50.840;4.346;2022-10-18T05:41:57;27.20;;;17.17;;
25409;SDS011;13339;50.840;4.346;2022-10-18T05:44:23;27.77;;;17.30;;
25409;SDS011;13339;50.840;4.346;2022-10-18T05:46:49;32.13;;;17.10;;
25409;SDS011;13339;50.840;4.346;2022-10-18T05:49:15;26.07;;;17.20;;
25409;SDS011;13339;50.840;4.346;2022-10-18T05:51:41;35.07;;;16.50;;
25409;SDS011;13339;50.840;4.346;2022-10-18T05:54:06;30.80;;;16.63;;
25409;SDS011;13339;50.840;4.346;2022-10-18T05:56:33;24.67;;;16.80;;
25409;SDS011;13339;50.840;4.346;2022-10-18T05:58:58;25.10;;;15.73;;
25409;SDS011;13339;50.840;4.346;2022-10-18T06:01:24;26.50;;;14.77;;
25409;SDS011;13339;50.840;4.346;2022-10-18T06:03:49;33.20;;;15.00;;
25409;SDS011;13339;50.840;4.346;2022-10-18T06:06:15;24.27;;;14.73;;
25409;SDS011;13339;50.840;4.346;2022-10-18T06:08:41;29.67;;;13.63;;
25409;SDS011;13339;50.840;4.346;2022-10-18T06:11:09;26.30;;;13.30;;
25409;SDS011;13339;50.840;4.346;2022-10-18T06:13:43;23.67;;;10.80;;
25409;SDS011;13339;50.840;4.346;2022-10-18T06:16:10;23.60;;;11.07;;
25409;SDS011;13339;50.840;4.346;2022-10-18T06:18:37;21.97;;;10.30;;
25409;SDS011;13339;50.840;4.346;2022-10-18T06:21:03;27.97;;;11.07;;
25409;SDS011;13339;50.840;4.346;2022-10-18T06:23:28;23.77;;;11.23;;
25409;SDS011;13339;50.840;4.346;2022-10-18T06:25:58;22.53;;;10.67;;
25409;SDS011;13339;50.840;4.346;2022-10-18T06:28:24;26.90;;;10.70;;
25409;SDS011;13339;50.840;4.346;2022-10-18T06:30:50;24.27;;;10.67;;
25409;SDS011;13339;50.840;4.346;2022-10-18T06:33:16;25.20;;;11.67;;
25409;SDS011;13339;50.840;4.346;2022-10-18T06:35:41;23.50;;;11.00;;
25409;SDS011;13339;50.840;4.346;2022-10-18T06:38:07;23.77;;;9.43;;
25409;SDS011;13339;50.840;4.346;2022-10-18T06:40:32;25.17;;;9.47;;
25409;SDS011;13339;50.840;4.346;2022-10-18T06:43:02;20.73;;;8.33;;
25409;SDS011;13339;50.840;4.346;2022-10-18T06:45:32;15.73;;;8.07;;
25409;SDS011;13339;50.840;4.346;2022-10-18T06:47:58;18.80;;;8.70;;
25409;SDS011;13339;50.840;4.346;2022-10-18T06:50:23;20.47;;;7.50;;
25409;SDS011;13339;50.840;4.346;2022-10-18T06:52:50;19.67;;;7.30;;
25409;SDS011;13339;50.840;4.346;2022-10-18T06:55:16;18.00;;;7.30;;
25409;SDS011;13339;50.840;4.346;2022-10-18T06:57:42;19.50;;;7.17;;
25409;SDS011;13339;50.840;4.346;2022-10-18T07:00:08;17.83;;;7.27;;
25409;SDS011;13339;50.840;4.346;2022-10-18T07:02:34;23.37;;;7.57;;
25409;SDS011;13339;50.840;4.346;2022-10-18T07:04:59;15.50;;;6.70;;
25409;SDS011;13339;50.840;4.346;2022-10-18T07:07:25;17.67;;;7.57;;
25409;SDS011;13339;50.840;4.346;2022-10-18T07:09:50;19.03;;;7.10;;
25409;SDS011;13339;50.840;4.346;2022-10-18T07:12:16;24.97;;;7.20;;
25409;SDS011;13339;50.840;4.346;2022-10-18T07:14:42;23.50;;;6.77;;
25409;SDS011;13339;50.840;4.346;2022-10-18T07:17:07;65.03;;;9.57;;
25409;SDS011;13339;50.840;4.346;2022-10-18T07:19:33;18.33;;;7.57;;
25409;SDS011;13339;50.840;4.346;2022-10-18T07:21:58;31.60;;;8.07;;
25409;SDS011;13339;50.840;4.346;2022-10-18T07:24:24;26.00;;;7.90;;
25409;SDS011;13339;50.840;4.346;2022-10-18T07:26:49;25.13;;;7.50;;
25409;SDS011;13339;50.840;4.346;2022-10-18T07:29:15;24.33;;;7.50;;
25409;SDS011;13339;50.840;4.346;2022-10-18T07:31:41;23.40;;;7.43;;
25409;SDS011;13339;50.840;4.346;2022-10-18T07:34:09;23.40;;;8.43;;
25409;SDS011;13339;50.840;4.346;2022-10-18T07:36:36;23.53;;;9.00;;
25409;SDS011;13339;50.840;4.346;2022-10-18T07:39:03;25.30;;;10.80;;
25409;SDS011;13339;50.840;4.346;2022-10-18T07:41:29;24.53;;;9.67;;
25409;SDS011;13339;50.840;4.346;2022-10-18T07:43:57;29.97;;;10.60;;
25409;SDS011;13339;50.840;4.346;2022-10-18T07:46:23;26.50;;;11.70;;
25409;SDS011;13339;50.840;4.346;2022-10-18T07:48:49;27.40;;;10.57;;
25409;SDS011;13339;50.840;4.346;2022-10-18T07:51:15;28.47;;;8.73;;
25409;SDS011;13339;50.840;4.346;2022-10-18T07:53:42;21.97;;;8.40;;
25409;SDS011;13339;50.840;4.346;2022-10-18T07:56:08;23.03;;;9.30;;
25409;SDS011;13339;50.840;4.346;2022-10-18T07:58:39;23.23;;;8.27;;
25409;SDS011;13339;50.840;4.346;2022-10-18T08:01:09;27.47;;;8.50;;
25409;SDS011;13339;50.840;4.346;2022-10-18T08:03:36;19.87;;;8.60;;
25409;SDS011;13339;50.840;4.346;2022-10-18T08:06:03;21.77;;;9.23;;
25409;SDS011;13339;50.840;4.346;2022-10-18T08:08:32;19.33;;;8.83;;
25409;SDS011;13339;50.840;4.346;2022-10-18T08:11:01;24.43;;;8.57;;
25409;SDS011;13339;50.840;4.346;2022-10-18T08:13:28;24.80;;;8.60;;
25409;SDS011;13339;50.840;4.346;2022-10-18T08:16:01;24.03;;;9.20;;
25409;SDS011;13339;50.840;4.346;2022-10-18T08:18:29;26.03;;;8.87;;
25409;SDS011;13339;50.840;4.346;2022-10-18T08:20:55;28.30;;;8.30;;
25409;SDS011;13339;50.840;4.346;2022-10-18T08:23:20;27.70;;;10.00;;
25409;SDS011;13339;50.840;4.346;2022-10-18T08:25:46;28.17;;;9.30;;
25409;SDS011;13339;50.840;4.346;2022-10-18T08:28:12;47.50;;;19.80;;
25409;SDS011;13339;50.840;4.346;2022-10-18T08:30:38;37.53;;;9.17;;
25409;SDS011;13339;50.840;4.346;2022-10-18T08:33:04;20.47;;;7.53;;
25409;SDS011;13339;50.840;4.346;2022-10-18T08:35:30;22.53;;;7.87;;
25409;SDS011;13339;50.840;4.346;2022-10-18T08:37:56;23.13;;;7.67;;
25409;SDS011;13339;50.840;4.346;2022-10-18T08:40:22;22.57;;;7.80;;
25409;SDS011;13339;50.840;4.346;2022-10-18T08:45:37;17.13;;;6.80;;
25409;SDS011;13339;50.840;4.346;2022-10-18T08:48:06;22.97;;;7.47;;
25409;SDS011;13339;50.840;4.346;2022-10-18T08:50:40;26.37;;;7.63;;
25409;SDS011;13339;50.840;4.346;2022-10-18T08:53:14;23.07;;;7.90;;
25409;SDS011;13339;50.840;4.346;2022-10-18T08:55:51;27.23;;;7.87;;
25409;SDS011;13339;50.840;4.346;2022-10-18T08:58:23;24.80;;;7.90;;
25409;SDS011;13339;50.840;4.346;2022-10-18T09:03:20;31.33;;;8.43;;
25409;SDS011;13339;50.840;4.346;2022-10-18T09:06:12;28.13;;;6.97;;
25409;SDS011;13339;50.840;4.346;2022-10-18T09:11:35;33.30;;;6.63;;
25409;SDS011;13339;50.840;4.346;2022-10-18T09:17:07;28.23;;;8.30;;
25409;SDS011;13339;50.840;4.346;2022-10-18T09:22:19;34.20;;;8.73;;
25409;SDS011;13339;50.840;4.346;2022-10-18T09:27:21;24.30;;;9.10;;
25409;SDS011;13339;50.840;4.346;2022-10-18T09:30:12;26.33;;;8.83;;
25409;SDS011;13339;50.840;4.346;2022-10-18T09:35:37;32.13;;;9.87;;
25409;SDS011;13339;50.840;4.346;2022-10-18T09:38:18;38.43;;;10.50;;
25409;SDS011;13339;50.840;4.346;2022-10-18T09:40:55;24.80;;;10.03;;
25409;SDS011;13339;50.840;4.346;2022-10-18T09:43:25;28.67;;;9.27;;
25409;SDS011;13339;50.840;4.346;2022-10-18T09:46:11;29.23;;;9.30;;
25409;SDS011;13339;50.840;4.346;2022-10-18T09:48:41;28.30;;;9.80;;
25409;SDS011;13339;50.840;4.346;2022-10-18T09:51:19;27.50;;;9.50;;
25409;SDS011;13339;50.840;4.346;2022-10-18T09:56:23;22.30;;;8.73;;
25409;SDS011;13339;50.840;4.346;2022-10-18T09:58:53;31.33;;;8.47;;
25409;SDS011;13339;50.840;4.346;2022-10-18T10:01:25;24.40;;;8.13;;
25409;SDS011;13339;50.840;4.346;2022-10-18T10:03:53;24.30;;;8.50;;
25409;SDS011;13339;50.840;4.346;2022-10-18T10:06:29;28.43;;;8.77;;
25409;SDS011;13339;50.840;4.346;2022-10-18T10:11:32;21.03;;;8.33;;
25409;SDS011;13339;50.840;4.346;2022-10-18T10:14:12;19.10;;;8.30;;
25409;SDS011;13339;50.840;4.346;2022-10-18T10:17:00;21.53;;;8.43;;
25409;SDS011;13339;50.840;4.346;2022-10-18T10:27:13;18.73;;;8.20;;
25409;SDS011;13339;50.840;4.346;2022-10-18T10:29:49;23.93;;;7.30;;
25409;SDS011;13339;50.840;4.346;2022-10-18T10:32:20;24.87;;;7.50;;
25409;SDS011;13339;50.840;4.346;2022-10-18T10:34:47;42.97;;;17.87;;
25409;SDS011;13339;50.840;4.346;2022-10-18T10:42:36;28.83;;;8.53;;
25409;SDS011;13339;50.840;4.346;2022-10-18T10:45:12;24.93;;;9.20;;
25409;SDS011;13339;50.840;4.346;2022-10-18T10:47:38;27.57;;;8.50;;
25409;SDS011;13339;50.840;4.346;2022-10-18T10:50:10;25.33;;;7.90;;
25409;SDS011;13339;50.840;4.346;2022-10-18T10:52:37;25.13;;;7.30;;
25409;SDS011;13339;50.840;4.346;2022-10-18T10:55:04;16.37;;;5.23;;
25409;SDS011;13339;50.840;4.346;2022-10-18T10:57:41;15.50;;;3.90;;
25409;SDS011;13339;50.840;4.346;2022-10-18T11:03:17;22.63;;;4.70;;
25409;SDS011;13339;50.840;4.346;2022-10-18T11:08:18;22.80;;;4.70;;
25409;SDS011;13339;50.840;4.346;2022-10-18T11:10:55;14.50;;;3.53;;
25409;SDS011;13339;50.840;4.346;2022-10-18T11:16:16;21.37;;;4.73;;
25409;SDS011;13339;50.840;4.346;2022-10-18T11:18:53;18.90;;;3.90;;
25409;SDS011;13339;50.840;4.346;2022-10-18T11:21:22;17.20;;;3.77;;
25409;SDS011;13339;50.840;4.346;2022-10-18T11:23:51;18.60;;;3.73;;
25409;SDS011;13339;50.840;4.346;2022-10-18T11:32:02;10.73;;;3.17;;
25409;SDS011;13339;50.840;4.346;2022-10-18T11:38:15;19.17;;;3.73;;
25409;SDS011;13339;50.840;4.346;2022-10-18T11:42:46;13.30;;;3.13;;
25409;SDS011;13339;50.840;4.346;2022-10-18T11:53:48;13.53;;;3.30;;
25409;SDS011;13339;50.840;4.346;2022-10-18T11:56:43;15.10;;;3.40;;
25409;SDS011;13339;50.840;4.346;2022-10-18T12:04:57;15.47;;;3.63;;
25409;SDS011;13339;50.840;4.346;2022-10-18T12:07:26;9.33;;;2.83;;
25409;SDS011;13339;50.840;4.346;2022-10-18T12:09:58;21.00;;;4.60;;
25409;SDS011;13339;50.840;4.346;2022-10-18T12:12:36;24.40;;;6.20;;
25409;SDS011;13339;50.840;4.346;2022-10-18T12:15:17;11.20;;;2.93;;
25409;SDS011;13339;50.840;4.346;2022-10-18T12:17:47;13.67;;;3.30;;
25409;SDS011;13339;50.840;4.346;2022-10-18T12:20:24;15.80;;;3.40;;
25409;SDS011;13339;50.840;4.346;2022-10-18T12:23:04;15.57;;;3.10;;
25409;SDS011;13339;50.840;4.346;2022-10-18T12:25:41;11.60;;;2.93;;
25409;SDS011;13339;50.840;4.346;2022-10-18T12:31:29;7.20;;;2.40;;
25409;SDS011;13339;50.840;4.346;2022-10-18T12:39:36;14.80;;;3.27;;
25409;SDS011;13339;50.840;4.346;2022-10-18T12:42:13;11.10;;;3.60;;
25409;SDS011;13339;50.840;4.346;2022-10-18T12:44:46;13.63;;;2.83;;
25409;SDS011;13339;50.840;4.346;2022-10-18T12:47:22;14.73;;;3.83;;
25409;SDS011;13339;50.840;4.346;2022-10-18T12:49:59;17.63;;;4.13;;
25409;SDS011;13339;50.840;4.346;2022-10-18T12:52:27;11.53;;;3.23;;
25409;SDS011;13339;50.840;4.346;2022-10-18T13:18:51;14.43;;;3.37;;
25409;SDS011;13339;50.840;4.346;2022-10-18T13:24:15;15.43;;;3.60;;
25409;SDS011;13339;50.840;4.346;2022-10-18T13:32:25;14.03;;;2.67;;
25409;SDS011;13339;50.840;4.346;2022-10-18T13:34:58;12.70;;;2.90;;
25409;SDS011;13339;50.840;4.346;2022-10-18T13:37:24;9.37;;;3.13;;
25409;SDS011;13339;50.840;4.346;2022-10-18T13:39:52;14.67;;;2.93;;
25409;SDS011;13339;50.840;4.346;2022-10-18T13:42:46;12.27;;;3.20;;
25409;SDS011;13339;50.840;4.346;2022-10-18T13:47:55;14.20;;;2.70;;
25409;SDS011;13339;50.840;4.346;2022-10-18T13:56:57;10.93;;;2.73;;
25409;SDS011;13339;50.840;4.346;2022-10-18T14:02:38;16.87;;;3.20;;
25409;SDS011;13339;50.840;4.346;2022-10-18T14:07:58;14.67;;;2.83;;
25409;SDS011;13339;50.840;4.346;2022-10-18T14:10:42;15.20;;;3.07;;
25409;SDS011;13339;50.840;4.346;2022-10-18T14:13:29;19.40;;;3.50;;
25409;SDS011;13339;50.840;4.346;2022-10-18T14:16:05;13.90;;;2.83;;
25409;SDS011;13339;50.840;4.346;2022-10-18T14:18:42;9.10;;;2.37;;
25409;SDS011;13339;50.840;4.346;2022-10-18T14:21:15;17.67;;;3.00;;
25409;SDS011;13339;50.840;4.346;2022-10-18T14:23:47;13.07;;;3.27;;
25409;SDS011;13339;50.840;4.346;2022-10-18T14:26:15;13.30;;;3.27;;
25409;SDS011;13339;50.840;4.346;2022-10-18T14:28:42;10.83;;;3.17;;
25409;SDS011;13339;50.840;4.346;2022-10-18T14:31:12;16.30;;;3.13;;
25409;SDS011;13339;50.840;4.346;2022-10-18T14:36:22;13.47;;;2.80;;
25409;SDS011;13339;50.840;4.346;2022-10-18T14:41:21;12.97;;;3.20;;
25409;SDS011;13339;50.840;4.346;2022-10-18T14:43:51;10.43;;;3.20;;
25409;SDS011;13339;50.840;4.346;2022-10-18T14:46:39;11.87;;;2.77;;
25409;SDS011;13339;50.840;4.346;2022-10-18T14:49:10;15.70;;;3.27;;
25409;SDS011;13339;50.840;4.346;2022-10-18T14:51:38;12.17;;;2.90;;
25409;SDS011;13339;50.840;4.346;2022-10-18T14:54:06;17.10;;;3.10;;
25409;SDS011;13339;50.840;4.346;2022-10-18T14:56:38;12.43;;;2.90;;
25409;SDS011;13339;50.840;4.346;2022-10-18T14:59:09;11.37;;;3.47;;
25409;SDS011;13339;50.840;4.346;2022-10-18T15:01:50;14.23;;;2.63;;
25409;SDS011;13339;50.840;4.346;2022-10-18T15:04:16;10.60;;;2.87;;
25409;SDS011;13339;50.840;4.346;2022-10-18T15:06:43;11.27;;;2.50;;
25409;SDS011;13339;50.840;4.346;2022-10-18T15:09:08;11.83;;;3.27;;
25409;SDS011;13339;50.840;4.346;2022-10-18T15:11:37;16.00;;;2.87;;
25409;SDS011;13339;50.840;4.346;2022-10-18T15:14:06;13.20;;;2.87;;
25409;SDS011;13339;50.840;4.346;2022-10-18T15:16:37;10.00;;;2.93;;
25409;SDS011;13339;50.840;4.346;2022-10-18T15:19:23;10.63;;;3.00;;
25409;SDS011;13339;50.840;4.346;2022-10-18T15:24:29;16.30;;;3.80;;
25409;SDS011;13339;50.840;4.346;2022-10-18T15:27:23;15.47;;;3.80;;
25409;SDS011;13339;50.840;4.346;2022-10-18T15:29:53;13.33;;;3.20;;
25409;SDS011;13339;50.840;4.346;2022-10-18T15:32:29;11.23;;;3.00;;
25409;SDS011;13339;50.840;4.346;2022-10-18T15:35:05;13.40;;;2.83;;
25409;SDS011;13339;50.840;4.346;2022-10-18T15:37:38;13.10;;;3.20;;
25409;SDS011;13339;50.840;4.346;2022-10-18T15:40:24;12.37;;;2.87;;
25409;SDS011;13339;50.840;4.346;2022-10-18T15:42:56;15.30;;;2.87;;
25409;SDS011;13339;50.840;4.346;2022-10-18T15:47:56;14.43;;;3.40;;
25409;SDS011;13339;50.840;4.346;2022-10-18T15:50:36;11.10;;;3.20;;
25409;SDS011;13339;50.840;4.346;2022-10-18T15:55:46;12.97;;;3.40;;
25409;SDS011;13339;50.840;4.346;2022-10-18T15:58:23;21.93;;;4.50;;
25409;SDS011;13339;50.840;4.346;2022-10-18T16:00:59;14.73;;;3.27;;
25409;SDS011;13339;50.840;4.346;2022-10-18T16:03:25;11.67;;;2.70;;
25409;SDS011;13339;50.840;4.346;2022-10-18T16:05:55;17.13;;;3.10;;
25409;SDS011;13339;50.840;4.346;2022-10-18T16:08:27;15.00;;;3.23;;
25409;SDS011;13339;50.840;4.346;2022-10-18T16:10:57;13.10;;;3.23;;
25409;SDS011;13339;50.840;4.346;2022-10-18T16:13:24;14.37;;;3.67;;
25409;SDS011;13339;50.840;4.346;2022-10-18T16:15:50;16.23;;;3.30;;
25409;SDS011;13339;50.840;4.346;2022-10-18T16:18:19;12.37;;;3.60;;
25409;SDS011;13339;50.840;4.346;2022-10-18T16:20:46;10.47;;;2.80;;
25409;SDS011;13339;50.840;4.346;2022-10-18T16:23:16;12.33;;;2.67;;
25409;SDS011;13339;50.840;4.346;2022-10-18T16:25:44;16.60;;;3.10;;
25409;SDS011;13339;50.840;4.346;2022-10-18T16:28:13;10.83;;;2.63;;
25409;SDS011;13339;50.840;4.346;2022-10-18T16:30:45;13.17;;;3.70;;
25409;SDS011;13339;50.840;4.346;2022-10-18T16:33:16;19.43;;;3.77;;
25409;SDS011;13339;50.840;4.346;2022-10-18T16:35:42;12.43;;;3.67;;
25409;SDS011;13339;50.840;4.346;2022-10-18T16:38:11;15.87;;;3.93;;
25409;SDS011;13339;50.840;4.346;2022-10-18T16:40:44;14.57;;;2.80;;
25409;SDS011;13339;50.840;4.346;2022-10-18T16:43:09;13.17;;;3.40;;
25409;SDS011;13339;50.840;4.346;2022-10-18T16:45:35;15.57;;;3.77;;
25409;SDS011;13339;50.840;4.346;2022-10-18T16:48:01;13.40;;;3.67;;
25409;SDS011;13339;50.840;4.346;2022-10-18T16:50:26;16.47;;;4.37;;
25409;SDS011;13339;50.840;4.346;2022-10-18T16:52:52;18.30;;;4.73;;
25409;SDS011;13339;50.840;4.346;2022-10-18T16:55:18;14.57;;;3.77;;
25409;SDS011;13339;50.840;4.346;2022-10-18T16:57:48;15.43;;;4.20;;
25409;SDS011;13339;50.840;4.346;2022-10-18T17:00:16;14.43;;;3.57;;
25409;SDS011;13339;50.840;4.346;2022-10-18T17:02:45;16.60;;;3.70;;
25409;SDS011;13339;50.840;4.346;2022-10-18T17:05:14;15.27;;;3.70;;
25409;SDS011;13339;50.840;4.346;2022-10-18T17:07:40;13.57;;;3.40;;
25409;SDS011;13339;50.840;4.346;2022-10-18T17:10:07;21.47;;;4.13;;
25409;SDS011;13339;50.840;4.346;2022-10-18T17:12:35;15.47;;;4.23;;
25409;SDS011;13339;50.840;4.346;2022-10-18T17:15:01;15.50;;;4.03;;
25409;SDS011;13339;50.840;4.346;2022-10-18T17:17:26;11.50;;;3.90;;
25409;SDS011;13339;50.840;4.346;2022-10-18T17:19:52;15.10;;;3.70;;
25409;SDS011;13339;50.840;4.346;2022-10-18T17:22:18;17.83;;;4.40;;
25409;SDS011;13339;50.840;4.346;2022-10-18T17:24:43;16.40;;;4.07;;
25409;SDS011;13339;50.840;4.346;2022-10-18T17:27:09;16.93;;;3.87;;
25409;SDS011;13339;50.840;4.346;2022-10-18T17:29:35;15.47;;;3.43;;
25409;SDS011;13339;50.840;4.346;2022-10-18T17:32:01;15.10;;;3.47;;
25409;SDS011;13339;50.840;4.346;2022-10-18T17:34:26;14.00;;;3.87;;